sensor_id;sensor_type;location;lat;lon;timestamp;pressure;altitude;pressure_sealevel;temperature;humidity
23303;BME280;11820;48.738;9.092;2023-05-28T00:00:08;96464.28;;;15.92;100.00
23303;BME280;11820;48.738;9.092;2023-05-28T00:02:35;96466.97;;;15.74;100.00
23303;BME280;11820;48.738;9.092;2023-05-28T00:05:01;96457.94;;;15.58;100.00
23303;BME280;11820;48.738;9.092;2023-05-28T00:07:27;96453.16;;;15.85;100.00
23303;BME280;11820;48.738;9.092;2023-05-28T00:09:54;96457.09;;;15.76;100.00
23303;BME280;11820;48.738;9.092;2023-05-28T00:12:20;96455.13;;;15.89;100.00
23303;BME280;11820;48.738;9.092;2023-05-28T00:14:45;96463.22;;;15.81;100.00
23303;BME280;11820;48.738;9.092;2023-05-28T00:17:12;96450.31;;;15.57;100.00
23303;BME280;11820;48.738;9.092;2023-05-28T00:19:37;96451.25;;;15.62;100.00
23303;BME280;11820;48.738;9.092;2023-05-28T00:22:02;96444.44;;;15.91;100.00
23303;BME280;11820;48.738;9.092;2023-05-28T00:24:28;96449.00;;;15.95;100.00
23303;BME280;11820;48.738;9.092;2023-05-28T00:26:53;96443.38;;;15.51;100.00
23303;BME280;11820;48.738;9.092;2023-05-28T00:29:18;96438.38;;;15.49;100.00
23303;BME280;11820;48.738;9.092;2023-05-28T00:31:44;96435.13;;;15.54;100.00
23303;BME280;11820;48.738;9.092;2023-05-28T00:34:09;96435.38;;;15.64;100.00
23303;BME280;11820;48.738;9.092;2023-05-28T00:36:34;96432.09;;;15.39;100.00
23303;BME280;11820;48.738;9.092;2023-05-28T00:39:00;96436.31;;;15.69;100.00
23303;BME280;11820;48.738;9.092;2023-05-28T00:41:30;96433.41;;;15.48;100.00
23303;BME280;11820;48.738;9.092;2023-05-28T00:43:56;96429.81;;;15.24;100.00
23303;BME280;11820;48.738;9.092;2023-05-28T00:46:21;96432.34;;;15.13;100.00
23303;BME280;11820;48.738;9.092;2023-05-28T00:48:50;96428.03;;;15.43;100.00
23303;BME280;11820;48.738;9.092;2023-05-28T00:51:15;96429.09;;;15.53;100.00
23303;BME280;11820;48.738;9.092;2023-05-28T00:53:42;96420.59;;;15.28;100.00
23303;BME280;11820;48.738;9.092;2023-05-28T00:56:09;96431.19;;;15.09;100.00
23303;BME280;11820;48.738;9.092;2023-05-28T00:58:38;96431.06;;;15.22;100.00
23303;BME280;11820;48.738;9.092;2023-05-28T01:01:08;96429.34;;;15.34;100.00
23303;BME280;11820;48.738;9.092;2023-05-28T01:03:35;96424.13;;;15.34;100.00
23303;BME280;11820;48.738;9.092;2023-05-28T01:06:05;96430.69;;;15.00;100.00
23303;BME280;11820;48.738;9.092;2023-05-28T01:08:31;96424.47;;;15.01;100.00
23303;BME280;11820;48.738;9.092;2023-05-28T01:10:57;96418.97;;;14.91;100.00
23303;BME280;11820;48.738;9.092;2023-05-28T01:13:23;96424.25;;;15.03;100.00
23303;BME280;11820;48.738;9.092;2023-05-28T01:15:48;96425.03;;;15.03;100.00
23303;BME280;11820;48.738;9.092;2023-05-28T01:18:14;96424.47;;;15.01;100.00
23303;BME280;11820;48.738;9.092;2023-05-28T01:20:39;96425.91;;;14.97;100.00
23303;BME280;11820;48.738;9.092;2023-05-28T01:23:11;96423.75;;;14.94;100.00
23303;BME280;11820;48.738;9.092;2023-05-28T01:25:36;96414.78;;;15.08;100.00
23303;BME280;11820;48.738;9.092;2023-05-28T01:28:12;96418.06;;;14.62;100.00
23303;BME280;11820;48.738;9.092;2023-05-28T01:30:40;96422.22;;;15.05;100.00
23303;BME280;11820;48.738;9.092;2023-05-28T01:33:06;96420.19;;;14.89;100.00
23303;BME280;11820;48.738;9.092;2023-05-28T01:35:32;96415.22;;;14.87;100.00
23303;BME280;11820;48.738;9.092;2023-05-28T01:38:01;96417.38;;;14.90;100.00
23303;BME280;11820;48.738;9.092;2023-05-28T01:40:28;96417.88;;;14.81;100.00
23303;BME280;11820;48.738;9.092;2023-05-28T01:42:54;96410.78;;;14.70;100.00
23303;BME280;11820;48.738;9.092;2023-05-28T01:45:22;96415.41;;;14.86;100.00
23303;BME280;11820;48.738;9.092;2023-05-28T01:47:48;96418.09;;;14.97;100.00
23303;BME280;11820;48.738;9.092;2023-05-28T01:50:14;96406.41;;;14.64;100.00
23303;BME280;11820;48.738;9.092;2023-05-28T01:52:40;96408.38;;;14.26;100.00
23303;BME280;11820;48.738;9.092;2023-05-28T01:55:05;96412.28;;;14.35;100.00
23303;BME280;11820;48.738;9.092;2023-05-28T01:57:34;96406.97;;;14.48;100.00
23303;BME280;11820;48.738;9.092;2023-05-28T01:59:59;96405.06;;;14.37;100.00
23303;BME280;11820;48.738;9.092;2023-05-28T02:02:24;96407.09;;;14.35;100.00
23303;BME280;11820;48.738;9.092;2023-05-28T02:04:52;96407.31;;;14.34;100.00
23303;BME280;11820;48.738;9.092;2023-05-28T02:07:17;96411.44;;;14.41;100.00
23303;BME280;11820;48.738;9.092;2023-05-28T02:09:43;96401.19;;;14.46;100.00
23303;BME280;11820;48.738;9.092;2023-05-28T02:12:08;96402.72;;;14.54;100.00
23303;BME280;11820;48.738;9.092;2023-05-28T02:14:33;96394.97;;;14.47;100.00
23303;BME280;11820;48.738;9.092;2023-05-28T02:16:59;96391.53;;;14.53;100.00
23303;BME280;11820;48.738;9.092;2023-05-28T02:19:25;96396.41;;;14.19;100.00
23303;BME280;11820;48.738;9.092;2023-05-28T02:21:51;96394.25;;;14.09;100.00
23303;BME280;11820;48.738;9.092;2023-05-28T02:24:17;96403.34;;;13.69;100.00
23303;BME280;11820;48.738;9.092;2023-05-28T02:26:42;96402.53;;;13.69;100.00
23303;BME280;11820;48.738;9.092;2023-05-28T02:29:07;96392.59;;;13.90;100.00
23303;BME280;11820;48.738;9.092;2023-05-28T02:31:33;96389.31;;;14.01;100.00
23303;BME280;11820;48.738;9.092;2023-05-28T02:33:58;96387.63;;;13.89;100.00
23303;BME280;11820;48.738;9.092;2023-05-28T02:36:23;96384.69;;;14.03;100.00
23303;BME280;11820;48.738;9.092;2023-05-28T02:38:49;96382.78;;;13.92;100.00
23303;BME280;11820;48.738;9.092;2023-05-28T02:41:15;96382.72;;;13.99;100.00
23303;BME280;11820;48.738;9.092;2023-05-28T02:43:40;96383.13;;;14.02;100.00
23303;BME280;11820;48.738;9.092;2023-05-28T02:46:06;96394.00;;;13.86;100.00
23303;BME280;11820;48.738;9.092;2023-05-28T02:48:31;96387.28;;;13.79;100.00
23303;BME280;11820;48.738;9.092;2023-05-28T02:50:56;96390.16;;;13.95;100.00
23303;BME280;11820;48.738;9.092;2023-05-28T02:53:22;96392.22;;;13.87;100.00
23303;BME280;11820;48.738;9.092;2023-05-28T02:55:48;96397.13;;;13.70;100.00
23303;BME280;11820;48.738;9.092;2023-05-28T02:58:14;96388.31;;;14.02;100.00
23303;BME280;11820;48.738;9.092;2023-05-28T03:00:39;96396.94;;;13.65;100.00
23303;BME280;11820;48.738;9.092;2023-05-28T03:03:05;96395.59;;;13.87;100.00
23303;BME280;11820;48.738;9.092;2023-05-28T03:05:30;96399.78;;;13.57;100.00
23303;BME280;11820;48.738;9.092;2023-05-28T03:07:57;96393.69;;;13.76;100.00
23303;BME280;11820;48.738;9.092;2023-05-28T03:10:22;96397.78;;;13.90;100.00
23303;BME280;11820;48.738;9.092;2023-05-28T03:12:48;96402.25;;;13.83;100.00
23303;BME280;11820;48.738;9.092;2023-05-28T03:15:13;96400.94;;;13.99;100.00
23303;BME280;11820;48.738;9.092;2023-05-28T03:17:39;96397.19;;;13.88;100.00
23303;BME280;11820;48.738;9.092;2023-05-28T03:20:05;96399.41;;;13.91;100.00
23303;BME280;11820;48.738;9.092;2023-05-28T03:22:33;96401.31;;;14.02;100.00
23303;BME280;11820;48.738;9.092;2023-05-28T03:24:58;96410.13;;;13.70;100.00
23303;BME280;11820;48.738;9.092;2023-05-28T03:27:24;96409.75;;;13.67;100.00
23303;BME280;11820;48.738;9.092;2023-05-28T03:29:49;96408.53;;;13.69;100.00
23303;BME280;11820;48.738;9.092;2023-05-28T03:32:14;96402.94;;;13.97;100.00
23303;BME280;11820;48.738;9.092;2023-05-28T03:34:40;96406.28;;;13.73;100.00
23303;BME280;11820;48.738;9.092;2023-05-28T03:37:05;96406.75;;;13.63;100.00
23303;BME280;11820;48.738;9.092;2023-05-28T03:39:31;96393.41;;;13.91;100.00
23303;BME280;11820;48.738;9.092;2023-05-28T03:41:56;96403.41;;;13.87;100.00
23303;BME280;11820;48.738;9.092;2023-05-28T03:44:21;96403.22;;;13.89;100.00
23303;BME280;11820;48.738;9.092;2023-05-28T03:46:46;96396.19;;;13.89;100.00
23303;BME280;11820;48.738;9.092;2023-05-28T03:49:12;96402.63;;;13.87;100.00
23303;BME280;11820;48.738;9.092;2023-05-28T03:51:37;96409.72;;;13.73;100.00
23303;BME280;11820;48.738;9.092;2023-05-28T03:54:03;96404.28;;;13.75;100.00
23303;BME280;11820;48.738;9.092;2023-05-28T03:56:28;96403.50;;;13.74;100.00
23303;BME280;11820;48.738;9.092;2023-05-28T03:58:54;96403.41;;;13.56;100.00
23303;BME280;11820;48.738;9.092;2023-05-28T04:01:20;96400.63;;;13.51;100.00
23303;BME280;11820;48.738;9.092;2023-05-28T04:03:46;96398.50;;;13.73;100.00
23303;BME280;11820;48.738;9.092;2023-05-28T04:06:11;96399.72;;;13.70;100.00
23303;BME280;11820;48.738;9.092;2023-05-28T04:08:37;96399.38;;;13.60;100.00
23303;BME280;11820;48.738;9.092;2023-05-28T04:11:02;96401.31;;;13.71;100.00
23303;BME280;11820;48.738;9.092;2023-05-28T04:13:28;96401.03;;;13.86;100.00
23303;BME280;11820;48.738;9.092;2023-05-28T04:15:53;96398.00;;;13.89;100.00
23303;BME280;11820;48.738;9.092;2023-05-28T04:18:18;96394.59;;;13.88;100.00
23303;BME280;11820;48.738;9.092;2023-05-28T04:20:44;96396.97;;;13.96;100.00
23303;BME280;11820;48.738;9.092;2023-05-28T04:23:09;96397.91;;;14.02;100.00
23303;BME280;11820;48.738;9.092;2023-05-28T04:25:35;96398.28;;;14.05;100.00
23303;BME280;11820;48.738;9.092;2023-05-28T04:28:02;96397.25;;;14.13;100.00
23303;BME280;11820;48.738;9.092;2023-05-28T04:30:27;96398.88;;;14.07;100.00
23303;BME280;11820;48.738;9.092;2023-05-28T04:32:53;96390.94;;;13.96;100.00
23303;BME280;11820;48.738;9.092;2023-05-28T04:35:18;96399.03;;;14.12;100.00
23303;BME280;11820;48.738;9.092;2023-05-28T04:37:44;96397.72;;;14.03;100.00
23303;BME280;11820;48.738;9.092;2023-05-28T04:40:10;96405.41;;;13.85;100.00
23303;BME280;11820;48.738;9.092;2023-05-28T04:42:39;96400.72;;;14.00;100.00
23303;BME280;11820;48.738;9.092;2023-05-28T04:45:08;96411.44;;;13.86;100.00
23303;BME280;11820;48.738;9.092;2023-05-28T04:47:34;96409.75;;;13.98;100.00
23303;BME280;11820;48.738;9.092;2023-05-28T04:50:04;96406.19;;;14.23;100.00
23303;BME280;11820;48.738;9.092;2023-05-28T04:52:33;96404.66;;;14.09;100.00
23303;BME280;11820;48.738;9.092;2023-05-28T04:55:03;96405.22;;;14.18;100.00
23303;BME280;11820;48.738;9.092;2023-05-28T04:57:29;96404.97;;;14.26;100.00
23303;BME280;11820;48.738;9.092;2023-05-28T04:59:55;96409.22;;;14.20;100.00
23303;BME280;11820;48.738;9.092;2023-05-28T05:02:20;96410.81;;;14.21;100.00
23303;BME280;11820;48.738;9.092;2023-05-28T05:04:45;96410.25;;;14.37;100.00
23303;BME280;11820;48.738;9.092;2023-05-28T05:07:11;96406.22;;;14.41;100.00
23303;BME280;11820;48.738;9.092;2023-05-28T05:09:37;96403.94;;;14.51;100.00
23303;BME280;11820;48.738;9.092;2023-05-28T05:12:02;96409.22;;;14.45;100.00
23303;BME280;11820;48.738;9.092;2023-05-28T05:14:28;96406.84;;;14.61;100.00
23303;BME280;11820;48.738;9.092;2023-05-28T05:16:53;96406.28;;;14.59;100.00
23303;BME280;11820;48.738;9.092;2023-05-28T05:19:18;96401.09;;;14.77;100.00
23303;BME280;11820;48.738;9.092;2023-05-28T05:21:44;96409.59;;;14.66;100.00
23303;BME280;11820;48.738;9.092;2023-05-28T05:24:09;96406.59;;;14.69;100.00
23303;BME280;11820;48.738;9.092;2023-05-28T05:26:35;96402.97;;;14.88;100.00
23303;BME280;11820;48.738;9.092;2023-05-28T05:29:00;96400.44;;;14.99;100.00
23303;BME280;11820;48.738;9.092;2023-05-28T05:31:25;96403.00;;;15.06;100.00
23303;BME280;11820;48.738;9.092;2023-05-28T05:33:50;96398.94;;;15.10;100.00
23303;BME280;11820;48.738;9.092;2023-05-28T05:36:16;96401.09;;;15.13;100.00
23303;BME280;11820;48.738;9.092;2023-05-28T05:38:41;96402.03;;;15.18;100.00
23303;BME280;11820;48.738;9.092;2023-05-28T05:41:07;96403.00;;;15.24;100.00
23303;BME280;11820;48.738;9.092;2023-05-28T05:43:32;96398.06;;;15.34;100.00
23303;BME280;11820;48.738;9.092;2023-05-28T05:45:58;96406.94;;;15.26;100.00
23303;BME280;11820;48.738;9.092;2023-05-28T05:48:26;96408.19;;;15.42;100.00
23303;BME280;11820;48.738;9.092;2023-05-28T05:50:53;96410.97;;;15.47;100.00
23303;BME280;11820;48.738;9.092;2023-05-28T05:53:24;96406.94;;;15.62;100.00
23303;BME280;11820;48.738;9.092;2023-05-28T05:55:50;96403.56;;;15.73;100.00
23303;BME280;11820;48.738;9.092;2023-05-28T05:58:15;96407.19;;;15.72;100.00
23303;BME280;11820;48.738;9.092;2023-05-28T06:00:41;96405.03;;;15.69;100.00
23303;BME280;11820;48.738;9.092;2023-05-28T06:03:07;96408.13;;;15.78;100.00
23303;BME280;11820;48.738;9.092;2023-05-28T06:05:33;96407.28;;;15.95;100.00
23303;BME280;11820;48.738;9.092;2023-05-28T06:07:58;96407.06;;;15.97;100.00
23303;BME280;11820;48.738;9.092;2023-05-28T06:10:23;96405.16;;;16.04;100.00
23303;BME280;11820;48.738;9.092;2023-05-28T06:12:49;96410.72;;;16.19;100.00
23303;BME280;11820;48.738;9.092;2023-05-28T06:15:15;96409.84;;;16.25;100.00
23303;BME280;11820;48.738;9.092;2023-05-28T06:17:40;96411.56;;;16.30;100.00
23303;BME280;11820;48.738;9.092;2023-05-28T06:20:07;96414.31;;;16.35;100.00
23303;BME280;11820;48.738;9.092;2023-05-28T06:22:33;96415.56;;;16.44;100.00
23303;BME280;11820;48.738;9.092;2023-05-28T06:24:58;96412.72;;;16.46;100.00
23303;BME280;11820;48.738;9.092;2023-05-28T06:27:26;96412.53;;;16.47;100.00
23303;BME280;11820;48.738;9.092;2023-05-28T06:29:51;96418.31;;;16.49;100.00
23303;BME280;11820;48.738;9.092;2023-05-28T06:32:16;96410.25;;;16.62;100.00
23303;BME280;11820;48.738;9.092;2023-05-28T06:34:42;96411.03;;;16.63;100.00
23303;BME280;11820;48.738;9.092;2023-05-28T06:37:07;96415.00;;;16.65;100.00
23303;BME280;11820;48.738;9.092;2023-05-28T06:39:33;96413.66;;;16.74;100.00
23303;BME280;11820;48.738;9.092;2023-05-28T06:41:58;96416.03;;;16.87;100.00
23303;BME280;11820;48.738;9.092;2023-05-28T06:44:23;96417.03;;;16.86;100.00
23303;BME280;11820;48.738;9.092;2023-05-28T06:46:48;96419.91;;;16.85;100.00
23303;BME280;11820;48.738;9.092;2023-05-28T06:49:14;96413.66;;;16.86;100.00
23303;BME280;11820;48.738;9.092;2023-05-28T06:51:39;96417.50;;;16.95;100.00
23303;BME280;11820;48.738;9.092;2023-05-28T06:54:05;96423.06;;;16.98;100.00
23303;BME280;11820;48.738;9.092;2023-05-28T06:56:30;96416.00;;;17.10;100.00
23303;BME280;11820;48.738;9.092;2023-05-28T06:58:56;96416.22;;;17.09;100.00
23303;BME280;11820;48.738;9.092;2023-05-28T07:01:21;96424.97;;;17.14;100.00
23303;BME280;11820;48.738;9.092;2023-05-28T07:03:46;96419.44;;;17.11;100.00
23303;BME280;11820;48.738;9.092;2023-05-28T07:06:12;96414.94;;;17.23;100.00
23303;BME280;11820;48.738;9.092;2023-05-28T07:08:38;96423.47;;;17.30;100.00
23303;BME280;11820;48.738;9.092;2023-05-28T07:11:09;96421.78;;;17.35;100.00
23303;BME280;11820;48.738;9.092;2023-05-28T07:13:34;96422.91;;;17.39;100.00
23303;BME280;11820;48.738;9.092;2023-05-28T07:16:00;96421.06;;;17.51;100.00
23303;BME280;11820;48.738;9.092;2023-05-28T07:18:25;96422.53;;;17.47;100.00
23303;BME280;11820;48.738;9.092;2023-05-28T07:20:51;96423.16;;;17.66;100.00
23303;BME280;11820;48.738;9.092;2023-05-28T07:23:17;96426.44;;;17.73;100.00
23303;BME280;11820;48.738;9.092;2023-05-28T07:25:42;96428.41;;;17.66;100.00
23303;BME280;11820;48.738;9.092;2023-05-28T07:28:07;96423.94;;;17.66;100.00
23303;BME280;11820;48.738;9.092;2023-05-28T07:30:33;96427.94;;;17.69;100.00
23303;BME280;11820;48.738;9.092;2023-05-28T07:32:58;96431.63;;;17.84;100.00
23303;BME280;11820;48.738;9.092;2023-05-28T07:35:24;96426.94;;;17.86;100.00
23303;BME280;11820;48.738;9.092;2023-05-28T07:37:49;96425.44;;;17.90;100.00
23303;BME280;11820;48.738;9.092;2023-05-28T07:40:14;96422.53;;;17.87;100.00
23303;BME280;11820;48.738;9.092;2023-05-28T07:42:40;96423.84;;;17.89;100.00
23303;BME280;11820;48.738;9.092;2023-05-28T07:45:06;96422.56;;;18.03;100.00
23303;BME280;11820;48.738;9.092;2023-05-28T07:47:31;96426.28;;;18.07;100.00
23303;BME280;11820;48.738;9.092;2023-05-28T07:49:56;96423.47;;;18.25;100.00
23303;BME280;11820;48.738;9.092;2023-05-28T07:52:22;96421.97;;;18.29;97.07
23303;BME280;11820;48.738;9.092;2023-05-28T07:54:47;96422.53;;;18.31;97.25
23303;BME280;11820;48.738;9.092;2023-05-28T07:57:12;96423.78;;;18.45;99.14
23303;BME280;11820;48.738;9.092;2023-05-28T07:59:39;96420.00;;;18.36;99.52
23303;BME280;11820;48.738;9.092;2023-05-28T08:02:05;96425.16;;;18.47;98.81
23303;BME280;11820;48.738;9.092;2023-05-28T08:04:30;96419.34;;;18.62;98.85
23303;BME280;11820;48.738;9.092;2023-05-28T08:06:56;96421.44;;;18.60;98.33
23303;BME280;11820;48.738;9.092;2023-05-28T08:09:21;96420.72;;;18.64;98.16
23303;BME280;11820;48.738;9.092;2023-05-28T08:11:48;96425.69;;;18.66;97.10
23303;BME280;11820;48.738;9.092;2023-05-28T08:14:13;96424.44;;;18.68;94.66
23303;BME280;11820;48.738;9.092;2023-05-28T08:16:39;96420.69;;;18.81;94.12
23303;BME280;11820;48.738;9.092;2023-05-28T08:19:04;96423.00;;;18.77;93.94
23303;BME280;11820;48.738;9.092;2023-05-28T08:21:29;96417.53;;;18.79;94.71
23303;BME280;11820;48.738;9.092;2023-05-28T08:23:55;96417.75;;;18.77;94.49
23303;BME280;11820;48.738;9.092;2023-05-28T08:26:20;96422.19;;;18.93;95.98
23303;BME280;11820;48.738;9.092;2023-05-28T08:28:46;96418.16;;;18.86;95.30
23303;BME280;11820;48.738;9.092;2023-05-28T08:31:12;96413.34;;;18.99;95.74
23303;BME280;11820;48.738;9.092;2023-05-28T08:33:37;96416.00;;;19.21;96.67
23303;BME280;11820;48.738;9.092;2023-05-28T08:36:02;96406.63;;;19.25;95.68
23303;BME280;11820;48.738;9.092;2023-05-28T08:38:29;96404.88;;;19.30;93.77
23303;BME280;11820;48.738;9.092;2023-05-28T08:40:55;96409.88;;;19.32;94.38
23303;BME280;11820;48.738;9.092;2023-05-28T08:43:21;96398.22;;;19.44;94.38
23303;BME280;11820;48.738;9.092;2023-05-28T08:45:47;96397.72;;;19.47;92.87
23303;BME280;11820;48.738;9.092;2023-05-28T08:48:14;96395.97;;;19.53;92.27
23303;BME280;11820;48.738;9.092;2023-05-28T08:50:42;96401.22;;;19.53;92.91
23303;BME280;11820;48.738;9.092;2023-05-28T08:53:13;96395.25;;;19.62;91.82
23303;BME280;11820;48.738;9.092;2023-05-28T08:55:40;96389.28;;;19.67;92.20
23303;BME280;11820;48.738;9.092;2023-05-28T08:58:06;96398.75;;;19.67;91.02
23303;BME280;11820;48.738;9.092;2023-05-28T09:00:32;96393.88;;;19.55;88.09
23303;BME280;11820;48.738;9.092;2023-05-28T09:02:58;96384.69;;;19.78;91.74
23303;BME280;11820;48.738;9.092;2023-05-28T09:05:23;96381.63;;;19.86;92.27
23303;BME280;11820;48.738;9.092;2023-05-28T09:07:49;96383.72;;;19.84;90.81
23303;BME280;11820;48.738;9.092;2023-05-28T09:10:14;96379.97;;;20.02;91.11
23303;BME280;11820;48.738;9.092;2023-05-28T09:12:39;96375.38;;;19.92;88.34
23303;BME280;11820;48.738;9.092;2023-05-28T09:15:07;96378.53;;;19.94;89.67
23303;BME280;11820;48.738;9.092;2023-05-28T09:17:37;96373.66;;;20.03;89.95
23303;BME280;11820;48.738;9.092;2023-05-28T09:20:11;96371.97;;;20.18;92.52
23303;BME280;11820;48.738;9.092;2023-05-28T09:22:37;96372.53;;;20.25;89.57
23303;BME280;11820;48.738;9.092;2023-05-28T09:25:03;96374.44;;;20.35;89.42
23303;BME280;11820;48.738;9.092;2023-05-28T09:27:29;96379.19;;;20.38;87.29
23303;BME280;11820;48.738;9.092;2023-05-28T09:29:55;96375.25;;;20.35;84.94
23303;BME280;11820;48.738;9.092;2023-05-28T09:32:20;96371.25;;;20.28;83.91
23303;BME280;11820;48.738;9.092;2023-05-28T09:34:46;96375.81;;;20.42;86.33
23303;BME280;11820;48.738;9.092;2023-05-28T09:37:11;96365.69;;;20.56;84.53
23303;BME280;11820;48.738;9.092;2023-05-28T09:39:36;96364.97;;;20.70;84.81
23303;BME280;11820;48.738;9.092;2023-05-28T09:42:03;96360.56;;;20.76;84.52
23303;BME280;11820;48.738;9.092;2023-05-28T09:44:31;96366.69;;;20.86;83.99
23303;BME280;11820;48.738;9.092;2023-05-28T09:46:57;96364.63;;;20.98;84.11
23303;BME280;11820;48.738;9.092;2023-05-28T09:49:23;96361.50;;;21.01;83.10
23303;BME280;11820;48.738;9.092;2023-05-28T09:51:51;96362.84;;;21.04;83.16
23303;BME280;11820;48.738;9.092;2023-05-28T09:54:17;96357.53;;;20.94;80.58
23303;BME280;11820;48.738;9.092;2023-05-28T09:56:47;96358.13;;;21.11;82.21
23303;BME280;11820;48.738;9.092;2023-05-28T09:59:15;96358.13;;;21.16;82.07
23303;BME280;11820;48.738;9.092;2023-05-28T10:01:52;96359.78;;;21.32;80.08
23303;BME280;11820;48.738;9.092;2023-05-28T10:04:22;96353.25;;;21.34;80.77
23303;BME280;11820;48.738;9.092;2023-05-28T10:06:48;96358.28;;;21.45;80.04
23303;BME280;11820;48.738;9.092;2023-05-28T10:09:15;96361.69;;;21.56;80.92
23303;BME280;11820;48.738;9.092;2023-05-28T10:11:59;96361.50;;;21.62;80.84
23303;BME280;11820;48.738;9.092;2023-05-28T10:14:26;96357.25;;;21.56;80.13
23303;BME280;11820;48.738;9.092;2023-05-28T10:16:52;96366.00;;;21.72;79.75
23303;BME280;11820;48.738;9.092;2023-05-28T10:19:17;96362.31;;;21.73;78.66
23303;BME280;11820;48.738;9.092;2023-05-28T10:21:42;96366.97;;;21.56;78.10
23303;BME280;11820;48.738;9.092;2023-05-28T10:24:08;96369.19;;;21.84;79.54
23303;BME280;11820;48.738;9.092;2023-05-28T10:26:34;96363.13;;;21.73;76.44
23303;BME280;11820;48.738;9.092;2023-05-28T10:28:59;96367.63;;;21.83;77.65
23303;BME280;11820;48.738;9.092;2023-05-28T10:31:25;96362.63;;;22.11;77.82
23303;BME280;11820;48.738;9.092;2023-05-28T10:33:50;96362.38;;;22.13;76.78
23303;BME280;11820;48.738;9.092;2023-05-28T10:36:16;96362.38;;;22.08;74.91
23303;BME280;11820;48.738;9.092;2023-05-28T10:38:43;96357.09;;;21.98;76.35
23303;BME280;11820;48.738;9.092;2023-05-28T10:41:09;96352.38;;;22.10;76.76
23303;BME280;11820;48.738;9.092;2023-05-28T10:46:05;96352.13;;;22.46;76.70
23303;BME280;11820;48.738;9.092;2023-05-28T10:48:37;96359.00;;;22.47;76.61
23303;BME280;11820;48.738;9.092;2023-05-28T10:51:04;96358.97;;;22.52;74.09
23303;BME280;11820;48.738;9.092;2023-05-28T10:53:29;96351.59;;;22.44;72.54
23303;BME280;11820;48.738;9.092;2023-05-28T10:55:55;96346.56;;;22.63;74.67
23303;BME280;11820;48.738;9.092;2023-05-28T11:00:50;96341.81;;;22.70;73.75
23303;BME280;11820;48.738;9.092;2023-05-28T11:03:15;96342.34;;;22.67;71.13
23303;BME280;11820;48.738;9.092;2023-05-28T11:05:40;96338.28;;;23.04;73.78
23303;BME280;11820;48.738;9.092;2023-05-28T11:08:06;96338.34;;;22.84;69.47
23303;BME280;11820;48.738;9.092;2023-05-28T11:10:32;96352.34;;;22.75;70.88
23303;BME280;11820;48.738;9.092;2023-05-28T11:12:58;96349.38;;;23.01;70.60
23303;BME280;11820;48.738;9.092;2023-05-28T11:15:24;96350.75;;;22.89;67.94
23303;BME280;11820;48.738;9.092;2023-05-28T11:17:49;96338.53;;;23.08;70.98
23303;BME280;11820;48.738;9.092;2023-05-28T11:20:27;96333.47;;;23.26;74.34
23303;BME280;11820;48.738;9.092;2023-05-28T11:22:55;96326.41;;;23.12;71.39
23303;BME280;11820;48.738;9.092;2023-05-28T11:25:21;96331.38;;;23.28;70.50
23303;BME280;11820;48.738;9.092;2023-05-28T11:27:47;96331.03;;;23.34;69.66
23303;BME280;11820;48.738;9.092;2023-05-28T11:30:17;96336.19;;;23.59;68.76
23303;BME280;11820;48.738;9.092;2023-05-28T11:32:44;96321.22;;;23.50;65.57
23303;BME280;11820;48.738;9.092;2023-05-28T11:35:10;96321.44;;;23.53;66.59
23303;BME280;11820;48.738;9.092;2023-05-28T11:37:40;96320.31;;;23.69;66.62
23303;BME280;11820;48.738;9.092;2023-05-28T11:40:07;96323.34;;;23.43;63.49
23303;BME280;11820;48.738;9.092;2023-05-28T11:42:40;96319.38;;;23.45;64.49
23303;BME280;11820;48.738;9.092;2023-05-28T11:45:07;96319.56;;;23.59;64.51
23303;BME280;11820;48.738;9.092;2023-05-28T11:47:33;96321.34;;;23.73;65.39
23303;BME280;11820;48.738;9.092;2023-05-28T11:50:09;96320.91;;;23.56;62.81
23303;BME280;11820;48.738;9.092;2023-05-28T11:52:34;96322.91;;;23.31;64.09
23303;BME280;11820;48.738;9.092;2023-05-28T11:55:00;96319.03;;;23.62;64.63
23303;BME280;11820;48.738;9.092;2023-05-28T11:57:27;96319.16;;;23.85;64.67
23303;BME280;11820;48.738;9.092;2023-05-28T12:00:14;96311.16;;;24.29;64.52
23303;BME280;11820;48.738;9.092;2023-05-28T12:02:46;96310.81;;;24.07;65.02
23303;BME280;11820;48.738;9.092;2023-05-28T12:05:12;96310.38;;;24.28;65.46
23303;BME280;11820;48.738;9.092;2023-05-28T12:07:44;96312.59;;;24.16;62.35
23303;BME280;11820;48.738;9.092;2023-05-28T12:10:14;96304.94;;;24.43;64.52
23303;BME280;11820;48.738;9.092;2023-05-28T12:12:45;96313.97;;;24.37;62.53
23303;BME280;11820;48.738;9.092;2023-05-28T12:15:11;96307.16;;;24.31;62.17
23303;BME280;11820;48.738;9.092;2023-05-28T12:17:38;96302.75;;;24.55;62.19
23303;BME280;11820;48.738;9.092;2023-05-28T12:20:33;96309.13;;;24.49;62.77
23303;BME280;11820;48.738;9.092;2023-05-28T12:23:06;96312.56;;;24.21;60.30
23303;BME280;11820;48.738;9.092;2023-05-28T12:25:58;96308.16;;;24.69;62.15
23303;BME280;11820;48.738;9.092;2023-05-28T12:28:24;96307.72;;;24.62;61.95
23303;BME280;11820;48.738;9.092;2023-05-28T12:30:51;96310.03;;;24.68;61.53
23303;BME280;11820;48.738;9.092;2023-05-28T12:33:18;96306.00;;;24.71;60.97
23303;BME280;11820;48.738;9.092;2023-05-28T12:35:44;96302.66;;;24.65;60.24
23303;BME280;11820;48.738;9.092;2023-05-28T12:38:09;96295.16;;;24.72;60.85
23303;BME280;11820;48.738;9.092;2023-05-28T12:40:35;96297.03;;;24.95;60.96
23303;BME280;11820;48.738;9.092;2023-05-28T12:43:00;96296.47;;;24.98;60.06
23303;BME280;11820;48.738;9.092;2023-05-28T12:45:27;96296.06;;;25.09;58.78
23303;BME280;11820;48.738;9.092;2023-05-28T12:47:52;96287.22;;;25.19;56.08
23303;BME280;11820;48.738;9.092;2023-05-28T12:50:17;96290.81;;;25.28;56.42
23303;BME280;11820;48.738;9.092;2023-05-28T12:52:43;96287.22;;;24.72;55.10
23303;BME280;11820;48.738;9.092;2023-05-28T12:55:08;96287.38;;;25.04;57.74